Time;durP1;ratioP1;P1;durP2;ratioP2;P2;SDS_P1;SDS_P2;PMS_P1;PMS_P2;Temp;Humidity;BMP_temperature;BMP_pressure;BME280_temperature;BME280_humidity;BME280_pressure;Samples;Min_cycle;Max_cycle;Signal;HPM_P1;HPM_P2
2022/03/12 00:01:48;;;;;;;25.55;15.77;;;;;;;8.79;43.96;101302.72;4936335;29;20024;-76
2022/03/12 00:04:14;;;;;;;23.05;15.45;;;;;;;8.74;43.56;101288.38;4966784;28;20040;-76
2022/03/12 00:06:39;;;;;;;23.35;14.48;;;;;;;8.81;43.61;101293.16;4935884;29;20034;-76
2022/03/12 00:09:05;;;;;;;25.60;15.43;;;;;;;8.88;43.85;101307.44;4936140;29;20042;-77
2022/03/12 00:11:34;;;;;;;22.77;14.60;;;;;;;8.88;43.52;101304.84;4936023;29;20082;-77
2022/03/12 00:14:02;;;;;;;28.55;14.85;;;;;;;8.94;43.51;101308.03;4936117;29;20032;-76
2022/03/12 00:16:28;;;;;;;22.50;14.27;;;;;;;8.84;43.39;101285.28;4936074;29;20086;-76
2022/03/12 00:19:02;;;;;;;23.13;15.13;;;;;;;8.95;43.61;101307.97;4935885;29;20032;-77
2022/03/12 00:21:30;;;;;;;25.25;14.80;;;;;;;8.96;43.56;101314.78;4936187;28;20035;-79
2022/03/12 00:23:58;;;;;;;24.38;14.88;;;;;;;8.96;44.22;101306.22;4936094;28;20447;-78
2022/03/12 00:26:24;;;;;;;21.70;14.45;;;;;;;8.97;43.48;101316.44;4950698;28;20393;-76
2022/03/12 00:28:52;;;;;;;23.00;14.90;;;;;;;8.68;43.59;101271.50;4935917;28;20059;-78
2022/03/12 00:31:17;;;;;;;23.45;15.00;;;;;;;8.95;44.36;101322.56;4936000;29;20040;-77
2022/03/12 00:33:43;;;;;;;25.88;14.65;;;;;;;8.93;43.96;101325.22;4935642;28;20569;-76
2022/03/12 00:36:09;;;;;;;29.80;16.92;;;;;;;8.87;43.70;101316.06;4935828;29;20028;-78
2022/03/12 00:38:34;;;;;;;29.20;16.15;;;;;;;8.77;43.58;101301.13;4935725;28;20032;-76
2022/03/12 00:41:02;;;;;;;27.95;16.27;;;;;;;8.94;44.21;101326.06;4935841;29;20385;-76
2022/03/12 00:43:28;;;;;;;37.72;20.17;;;;;;;8.93;44.32;101332.09;4935865;28;20429;-76
2022/03/12 00:45:53;;;;;;;24.23;14.75;;;;;;;8.79;44.16;101310.44;4935785;28;20027;-76
2022/03/12 00:48:18;;;;;;;26.33;15.07;;;;;;;8.91;44.27;101329.63;4935759;29;20102;-75
2022/03/12 00:50:47;;;;;;;23.35;14.52;;;;;;;8.78;44.77;101316.50;4935441;28;20032;-76
2022/03/12 00:53:12;;;;;;;27.17;15.15;;;;;;;8.81;44.85;101326.66;4935404;29;20043;-76
2022/03/12 00:55:37;;;;;;;24.55;15.40;;;;;;;8.76;44.52;101326.03;4935843;29;20408;-76
2022/03/12 00:58:03;;;;;;;26.48;15.43;;;;;;;8.86;45.15;101341.91;4935528;29;20156;-76
2022/03/12 01:00:29;;;;;;;24.52;15.30;;;;;;;8.82;45.22;101343.75;4935452;29;20115;-76
2022/03/12 01:02:54;;;;;;;25.20;15.32;;;;;;;8.77;45.57;101332.84;4935527;29;20476;-76
2022/03/12 01:05:39;;;;;;;23.02;15.30;;;;;;;8.68;45.54;101328.13;4935717;29;20380;-76
2022/03/12 01:08:05;;;;;;;23.05;15.13;;;;;;;8.74;46.16;101342.44;4966111;28;20119;-76
2022/03/12 01:10:31;;;;;;;24.98;15.45;;;;;;;8.63;46.17;101323.19;4935362;29;20114;-77
2022/03/12 01:12:56;;;;;;;23.92;15.07;;;;;;;8.74;46.54;101343.28;4935414;29;20032;-76
2022/03/12 01:15:21;;;;;;;23.20;15.43;;;;;;;8.73;46.81;101348.50;4935424;29;20028;-77
2022/03/12 01:17:47;;;;;;;24.60;15.13;;;;;;;8.71;46.91;101345.19;4935307;29;20027;-76
2022/03/12 01:20:12;;;;;;;24.48;15.35;;;;;;;8.73;47.35;101351.09;4938080;29;20067;-77
2022/03/12 01:22:39;;;;;;;25.20;15.48;;;;;;;8.66;47.46;101340.25;4939234;29;20028;-77
2022/03/12 01:25:07;;;;;;;25.83;15.75;;;;;;;8.74;47.66;101348.44;4939337;28;20035;-76
2022/03/12 01:27:33;;;;;;;25.98;15.82;;;;;;;8.72;47.88;101345.09;4939159;28;20024;-76
2022/03/12 01:29:59;;;;;;;26.60;16.10;;;;;;;8.59;47.86;101326.81;4939184;28;20024;-76
2022/03/12 01:32:24;;;;;;;25.15;16.13;;;;;;;8.75;48.56;101349.25;4939065;28;20119;-76
2022/03/12 01:34:49;;;;;;;26.30;16.00;;;;;;;8.62;49.16;101336.97;4938796;28;20024;-76
2022/03/12 01:37:19;;;;;;;28.23;15.90;;;;;;;8.37;50.17;101297.84;4938938;29;20382;-77
2022/03/12 01:39:46;;;;;;;24.13;15.60;;;;;;;8.70;50.45;101359.78;4938855;29;20083;-75
2022/03/12 01:42:14;;;;;;;25.55;16.45;;;;;;;8.62;50.83;101351.59;4939124;28;20417;-77
2022/03/12 01:44:39;;;;;;;26.95;16.27;;;;;;;8.65;51.47;101363.47;4938912;28;20035;-76
2022/03/12 01:47:09;;;;;;;25.48;15.80;;;;;;;8.53;52.19;101337.41;4938699;29;20035;-76
2022/03/12 01:49:35;;;;;;;28.05;16.48;;;;;;;8.63;53.08;101360.97;4938377;28;20035;-77
2022/03/12 01:52:07;;;;;;;25.50;16.25;;;;;;;8.57;53.31;101354.38;4938514;28;20050;-77
2022/03/12 01:54:33;;;;;;;;;;;;;;;8.62;52.83;101364.47;4939175;28;20055;-79
2022/03/12 01:56:59;;;;;;;26.55;15.65;;;;;;;8.58;53.50;101370.66;4939275;29;19911;-77
2022/03/12 01:59:24;;;;;;;29.10;18.42;;;;;;;8.44;53.99;101362.72;4938710;29;20384;-76
2022/03/12 02:01:54;;;;;;;27.80;16.23;;;;;;;8.53;54.86;101372.59;4953277;28;20050;-77
2022/03/12 02:04:22;;;;;;;27.42;17.80;;;;;;;8.48;56.37;101377.97;4938446;29;20035;-76
2022/03/12 02:06:48;;;;;;;27.17;16.33;;;;;;;8.44;57.21;101367.88;4938248;28;20476;-76
2022/03/12 02:09:18;;;;;;;29.25;17.17;;;;;;;8.26;56.97;101347.19;4938465;29;20122;-77
2022/03/12 02:11:48;;;;;;;25.33;17.00;;;;;;;8.35;57.44;101361.41;4938614;28;20492;-77
2022/03/12 02:14:16;;;;;;;24.23;16.23;;;;;;;8.19;57.06;101343.22;4938398;29;20074;-76
2022/03/12 02:16:49;;;;;;;29.60;17.15;;;;;;;8.19;57.04;101344.97;4938251;28;20019;-76
2022/03/12 02:19:14;;;;;;;26.67;16.33;;;;;;;8.26;56.35;101357.50;4938382;29;20035;-76
2022/03/12 02:21:49;;;;;;;25.83;16.08;;;;;;;8.26;56.50;101362.63;4937862;28;20053;-76
2022/03/12 02:24:17;;;;;;;26.88;16.67;;;;;;;8.26;56.17;101366.94;4938310;28;20114;-77
2022/03/12 02:26:44;;;;;;;25.42;15.73;;;;;;;8.24;56.69;101367.00;4938169;28;20038;-76
2022/03/12 02:29:12;;;;;;;29.13;18.13;;;;;;;8.24;56.70;101369.56;4938177;28;20035;-76
2022/03/12 02:31:40;;;;;;;24.42;15.63;;;;;;;8.09;56.20;101341.97;4937664;29;20035;-76
2022/03/12 02:34:10;;;;;;;24.80;16.13;;;;;;;8.24;56.24;101361.84;4937945;29;20031;-77
2022/03/12 02:36:36;;;;;;;24.90;16.80;;;;;;;8.16;57.17;101345.94;4937775;29;20035;-77
2022/03/12 02:39:05;;;;;;;24.27;16.23;;;;;;;8.23;56.18;101362.75;4937735;29;20043;-75
2022/03/12 02:41:31;;;;;;;24.48;15.88;;;;;;;8.23;56.32;101360.19;4937892;28;20024;-77
2022/03/12 02:43:57;;;;;;;25.90;15.30;;;;;;;8.20;56.00;101362.91;4937622;28;20055;-76
2022/03/12 02:46:29;;;;;;;25.25;15.60;;;;;;;8.25;56.25;101370.41;4937563;29;20028;-77
2022/03/12 02:48:56;;;;;;;26.17;16.73;;;;;;;8.15;55.92;101364.81;4937863;28;20030;-76
2022/03/12 02:51:26;;;;;;;29.13;15.15;;;;;;;8.26;55.52;101378.06;4937490;29;20023;-76
2022/03/12 02:53:56;;;;;;;28.55;16.35;;;;;;;8.22;55.10;101371.38;4968383;28;20036;-76
2022/03/12 02:56:25;;;;;;;27.55;16.80;;;;;;;8.23;55.27;101372.22;4937461;28;20148;-76
2022/03/12 02:58:52;;;;;;;29.88;16.83;;;;;;;8.26;55.04;101380.66;4937236;28;20106;-76
2022/03/12 03:01:18;;;;;;;25.65;15.95;;;;;;;8.29;55.07;101382.25;4937624;29;20114;-76
2022/03/12 03:03:45;;;;;;;25.20;16.52;;;;;;;8.29;54.87;101384.81;4952218;28;20448;-77
2022/03/12 03:06:15;;;;;;;27.55;16.52;;;;;;;8.29;55.27;101388.22;4937449;29;20082;-75
2022/03/12 03:08:42;;;;;;;27.55;17.00;;;;;;;8.28;55.03;101390.88;4937343;28;20066;-76
2022/03/12 03:11:13;;;;;;;26.95;17.00;;;;;;;8.21;55.35;101376.59;4937301;29;20031;-76
2022/03/12 03:13:42;;;;;;;26.95;17.20;;;;;;;8.17;54.75;101370.75;4937100;29;20710;-77
2022/03/12 03:16:21;;;;;;;27.35;16.88;;;;;;;8.26;54.88;101382.38;4937442;29;20024;-76
2022/03/12 03:18:53;;;;;;;27.45;16.60;;;;;;;8.23;54.96;101385.91;4967276;28;20491;-76
2022/03/12 03:21:27;;;;;;;27.77;17.50;;;;;;;8.19;55.80;101389.53;4936922;29;20031;-76
2022/03/12 03:23:54;;;;;;;26.90;15.93;;;;;;;8.02;55.22;101376.56;4936961;28;20494;-76
2022/03/12 03:26:48;;;;;;;27.10;17.23;;;;;;;8.07;55.45;101402.09;4936889;28;20028;-76
2022/03/12 03:29:15;;;;;;;27.60;17.00;;;;;;;7.85;55.96;101381.59;4937013;28;20032;-81
2022/03/12 03:31:41;;;;;;;29.60;17.20;;;;;;;7.68;56.47;101382.34;4936759;29;20035;-77
2022/03/12 03:34:06;;;;;;;27.35;16.58;;;;;;;7.51;57.10;101380.44;4936808;28;20039;-76
2022/03/12 03:36:32;;;;;;;27.08;16.33;;;;;;;7.44;57.58;101384.16;4936475;29;20028;-76
2022/03/12 03:38:57;;;;;;;25.33;16.63;;;;;;;7.16;58.16;101357.03;4936624;29;20024;-77
2022/03/12 03:41:22;;;;;;;29.10;16.85;;;;;;;7.34;58.34;101398.28;4936093;28;20027;-77
2022/03/12 03:43:48;;;;;;;29.08;16.08;;;;;;;7.25;59.04;101411.50;4936702;29;20062;-77
2022/03/12 03:46:20;;;;;;;28.60;16.60;;;;;;;7.18;58.98;101418.63;4936645;29;20027;-76
2022/03/12 03:48:51;;;;;;;27.33;16.17;;;;;;;6.90;59.26;101391.44;4936625;28;20464;-76
2022/03/12 03:51:18;;;;;;;27.73;17.00;;;;;;;6.94;59.70;101411.88;4936216;28;20028;-77
2022/03/12 03:53:43;;;;;;;29.48;18.02;;;;;;;6.90;60.00;101418.84;4936244;29;20059;-76
2022/03/12 03:56:09;;;;;;;26.08;16.52;;;;;;;6.83;60.59;101425.09;4936234;28;20031;-76
2022/03/12 03:58:35;;;;;;;31.48;16.73;;;;;;;6.64;60.61;101395.91;4936420;28;20035;-76
2022/03/12 04:01:03;;;;;;;26.90;16.45;;;;;;;6.73;61.40;101431.47;4936239;29;20503;-76
2022/03/12 04:03:37;;;;;;;25.95;16.45;;;;;;;6.73;61.29;101434.06;4936248;29;20056;-81
2022/03/12 04:06:04;;;;;;;25.15;15.70;;;;;;;6.66;62.06;101432.59;4936128;29;20027;-80
2022/03/12 04:08:32;;;;;;;24.10;16.17;;;;;;;6.64;62.33;101434.38;4936011;29;20028;-79
2022/03/12 04:10:57;;;;;;;25.30;14.95;;;;;;;6.59;62.88;101435.41;4936044;29;20060;-82
2022/03/12 04:13:24;;;;;;;25.38;15.32;;;;;;;6.53;63.52;101439.91;4936222;29;20028;-82
2022/03/12 04:15:52;;;;;;;22.98;14.55;;;;;;;6.47;63.85;101445.25;4936198;29;20043;-81
2022/03/12 04:18:21;;;;;;;28.73;15.48;;;;;;;6.42;64.44;101448.00;4936099;29;20023;-81
2022/03/12 04:20:47;;;;;;;26.40;15.40;;;;;;;6.37;65.02;101449.03;4935979;29;20038;-81
2022/03/12 04:23:18;;;;;;;27.05;16.45;;;;;;;6.30;65.67;101446.72;4935768;29;20020;-82
2022/03/12 04:25:48;;;;;;;25.02;15.23;;;;;;;6.29;65.65;101455.31;4936145;29;20401;-81
2022/03/12 04:28:13;;;;;;;25.80;16.45;;;;;;;6.22;65.91;101455.56;4936102;29;20158;-80
2022/03/12 04:30:39;;;;;;;28.92;16.50;;;;;;;5.94;66.00;101419.78;4935869;29;20111;-81
2022/03/12 04:33:07;;;;;;;27.90;17.33;;;;;;;5.87;66.31;101413.97;4935741;29;20032;-81
2022/03/12 04:35:33;;;;;;;26.50;16.13;;;;;;;6.06;66.93;101454.41;4935731;29;20512;-82
2022/03/12 04:37:59;;;;;;;26.02;16.38;;;;;;;5.89;66.46;101431.88;4935525;28;20027;-80
2022/03/12 04:40:26;;;;;;;26.50;16.27;;;;;;;6.00;66.84;101451.19;4935576;28;20556;-81
2022/03/12 04:42:52;;;;;;;27.08;16.30;;;;;;;5.96;67.38;101453.88;4935655;29;20031;-81
2022/03/12 04:45:21;;;;;;;27.23;15.70;;;;;;;5.92;68.31;101455.72;4935524;29;20038;-80
2022/03/12 04:47:48;;;;;;;26.15;15.63;;;;;;;5.83;69.00;101445.75;4935606;28;20032;-81
2022/03/12 04:50:16;;;;;;;24.75;15.15;;;;;;;5.92;69.60;101458.28;4935548;29;20040;-81
2022/03/12 04:52:46;;;;;;;25.67;15.23;;;;;;;5.85;70.14;101456.78;4935070;29;20055;-81
2022/03/12 04:55:19;;;;;;;24.13;15.20;;;;;;;5.76;70.64;101441.69;4935342;28;20046;-77
2022/03/12 04:57:46;;;;;;;25.45;15.70;;;;;;;5.89;71.98;101458.34;4935729;29;20091;-76
2022/03/12 05:00:27;;;;;;;24.23;14.10;;;;;;;5.92;71.91;101449.75;4935336;29;20046;-76
2022/03/12 05:03:01;;;;;;;24.10;14.65;;;;;;;5.92;73.51;101465.97;4935665;28;20027;-76
2022/03/12 05:05:26;;;;;;;24.58;14.23;;;;;;;5.92;73.89;101465.97;4935444;28;20118;-76
2022/03/12 05:07:52;;;;;;;22.80;13.50;;;;;;;5.92;74.21;101471.09;4935201;28;20059;-77
2022/03/12 05:10:17;;;;;;;22.58;14.07;;;;;;;5.92;74.61;101468.53;4935373;29;20107;-76
2022/03/12 05:12:44;;;;;;;22.10;14.18;;;;;;;5.89;74.69;101468.59;4935445;28;20501;-82
2022/03/12 05:15:15;;;;;;;22.23;14.45;;;;;;;5.93;75.31;101472.78;4935207;29;20519;-80
2022/03/12 05:17:47;;;;;;;24.48;14.50;;;;;;;5.92;75.25;101468.53;4935389;29;20024;-82
2022/03/12 05:20:19;;;;;;;23.20;13.80;;;;;;;5.79;75.78;101456.13;4966022;28;20047;-82
2022/03/12 05:22:45;;;;;;;21.90;13.60;;;;;;;5.86;75.86;101473.81;4935186;29;20024;-79
2022/03/12 05:25:11;;;;;;;23.65;14.35;;;;;;;5.72;75.88;101442.69;4935083;29;20043;-80
2022/03/12 05:27:36;;;;;;;24.35;14.65;;;;;;;5.73;76.01;101468.28;4935170;28;20027;-81
2022/03/12 05:30:04;;;;;;;24.38;14.18;;;;;;;5.59;76.73;101451.66;4935160;29;20381;-80
2022/03/12 05:32:29;;;;;;;23.20;13.85;;;;;;;5.83;77.02;101498.72;4935118;28;20032;-80
2022/03/12 05:34:54;;;;;;;22.35;13.55;;;;;;;5.67;76.96;101486.41;4934974;29;20032;-81
2022/03/12 05:37:20;;;;;;;22.45;13.68;;;;;;;5.68;77.94;101487.22;4935272;29;20034;-79
2022/03/12 05:39:48;;;;;;;22.15;13.52;;;;;;;5.60;78.25;101472.09;4934942;29;20036;-80
2022/03/12 05:42:14;;;;;;;21.73;12.73;;;;;;;5.79;78.60;101504.81;4935177;28;20393;-81
2022/03/12 05:44:40;;;;;;;26.10;13.35;;;;;;;5.81;79.28;101508.19;4935027;29;20024;-81
2022/03/12 05:47:10;;;;;;;23.55;13.75;;;;;;;5.80;79.14;101514.19;4965410;28;20035;-76
2022/03/12 05:49:36;;;;;;;21.80;13.38;;;;;;;5.67;79.16;101494.09;4949086;28;20504;-77
2022/03/12 05:52:01;;;;;;;21.80;14.25;;;;;;;5.75;79.53;101502.38;4934827;28;20048;-76
2022/03/12 05:54:27;;;;;;;23.75;13.45;;;;;;;5.72;79.83;101504.19;4934853;28;20019;-80
2022/03/12 05:56:53;;;;;;;20.98;13.73;;;;;;;5.62;79.89;101485.72;4935017;29;20020;-77
2022/03/12 05:59:18;;;;;;;22.88;13.10;;;;;;;5.67;79.91;101504.34;4934712;28;20168;-77
2022/03/12 06:01:44;;;;;;;20.77;12.88;;;;;;;5.76;80.23;101516.00;4934951;28;20024;-78
2022/03/12 06:04:10;;;;;;;22.83;13.65;;;;;;;5.73;80.58;101523.81;4934980;29;20127;-78
2022/03/12 06:06:36;;;;;;;21.55;13.80;;;;;;;5.74;81.19;101517.78;4938031;29;20049;-81
2022/03/12 06:09:07;;;;;;;19.75;12.93;;;;;;;5.77;80.92;101525.38;4938259;29;20111;-79
2022/03/12 06:11:36;;;;;;;22.00;13.75;;;;;;;5.58;80.94;101486.69;4938556;29;20024;-81
2022/03/12 06:14:02;;;;;;;20.13;13.48;;;;;;;5.79;80.97;101520.19;4938286;29;20024;-79
2022/03/12 06:16:28;;;;;;;19.73;12.90;;;;;;;5.72;80.58;101504.19;4938265;29;20030;-81
2022/03/12 06:18:53;;;;;;;21.95;13.10;;;;;;;5.78;81.01;101511.66;4938333;29;20111;-82
2022/03/12 06:21:20;;;;;;;23.00;13.55;;;;;;;5.80;81.09;101512.50;4938411;28;20059;-79
2022/03/12 06:23:46;;;;;;;21.20;13.75;;;;;;;5.75;81.07;101512.63;4938201;28;20427;-81
2022/03/12 06:26:14;;;;;;;23.45;14.07;;;;;;;5.92;80.30;101529.22;4938109;29;20039;-81
2022/03/12 06:28:41;;;;;;;22.10;13.23;;;;;;;5.89;80.41;101521.56;4938082;29;20078;-80
2022/03/12 06:31:07;;;;;;;24.48;15.13;;;;;;;6.00;80.80;101538.34;4937893;29;20078;-81
2022/03/12 06:33:34;;;;;;;25.13;14.68;;;;;;;6.07;80.62;101533.00;4938100;29;20044;-81
2022/03/12 06:36:01;;;;;;;21.50;14.18;;;;;;;6.00;80.34;101517.84;4937960;28;20082;-79
2022/03/12 06:38:26;;;;;;;22.27;13.98;;;;;;;6.13;80.39;101538.78;4937848;29;20032;-79
2022/03/12 06:40:54;;;;;;;20.85;13.48;;;;;;;6.19;80.35;101530.00;4937632;28;20031;-79
2022/03/12 06:43:19;;;;;;;24.45;14.55;;;;;;;6.27;80.13;101531.44;4937672;29;20050;-78
2022/03/12 06:45:49;;;;;;;23.20;14.35;;;;;;;6.28;80.02;101520.28;4937555;28;20027;-80
2022/03/12 06:48:16;;;;;;;22.50;14.15;;;;;;;6.49;80.33;101549.53;4937990;29;20032;-79
2022/03/12 06:50:42;;;;;;;22.52;13.35;;;;;;;6.58;80.38;101543.22;4937832;28;20374;-78
2022/03/12 06:53:08;;;;;;;22.48;13.38;;;;;;;6.67;80.01;101544.63;4937439;28;20044;-78
2022/03/12 06:55:33;;;;;;;20.95;13.50;;;;;;;6.63;80.54;101532.81;4937416;29;20083;-76
2022/03/12 06:57:59;;;;;;;23.83;13.43;;;;;;;6.81;80.43;101561.22;4937364;29;20050;-77
2022/03/12 07:00:30;;;;;;;19.77;12.70;;;;;;;6.88;80.32;101562.69;4937270;29;20054;-79
2022/03/12 07:02:56;;;;;;;;;;;;;;;6.96;79.50;101566.69;4937822;28;20468;-75
2022/03/12 07:05:22;;;;;;;20.30;12.65;;;;;;;6.98;80.16;101558.06;4968257;28;19974;-76
2022/03/12 07:07:49;;;;;;;18.85;12.85;;;;;;;7.12;80.20;101568.66;4937523;28;20026;-79
2022/03/12 07:10:14;;;;;;;21.25;13.15;;;;;;;7.21;80.00;101566.66;4937091;28;20024;-78
2022/03/12 07:12:42;;;;;;;20.67;13.38;;;;;;;7.27;79.84;101572.38;4937065;28;20039;-78
2022/03/12 07:15:07;;;;;;;18.88;12.73;;;;;;;7.33;79.74;101569.59;4937045;29;20032;-77
2022/03/12 07:17:34;;;;;;;22.05;13.05;;;;;;;7.40;79.73;101571.03;4936093;29;20038;-76
2022/03/12 07:19:59;;;;;;;21.45;13.25;;;;;;;7.39;79.32;101553.13;4937153;29;20047;-78
2022/03/12 07:22:24;;;;;;;18.80;11.80;;;;;;;7.44;79.34;101564.03;4937023;28;20385;-78
2022/03/12 07:24:50;;;;;;;21.38;12.43;;;;;;;7.57;79.39;101575.53;4937019;29;20072;-77
2022/03/12 07:27:15;;;;;;;18.17;12.10;;;;;;;7.55;79.22;101566.19;4936817;29;20060;-75
2022/03/12 07:29:41;;;;;;;19.88;12.93;;;;;;;7.58;79.04;101559.22;4936885;29;20035;-79
2022/03/12 07:32:06;;;;;;;19.67;12.88;;;;;;;7.46;78.73;101536.53;4967504;28;20051;-79
2022/03/12 07:34:32;;;;;;;18.98;12.30;;;;;;;7.67;78.97;101571.72;4936774;29;20472;-79
2022/03/12 07:36:57;;;;;;;19.63;12.75;;;;;;;7.62;78.96;101562.50;4936017;28;20043;-75
2022/03/12 07:39:23;;;;;;;22.23;13.18;;;;;;;7.76;78.95;101588.50;4952288;28;20374;-77
2022/03/12 07:41:48;;;;;;;20.67;12.73;;;;;;;7.69;79.20;101572.50;4937002;28;20028;-74
2022/03/12 07:44:14;;;;;;;20.10;13.25;;;;;;;7.98;78.90;101602.19;4936928;29;20055;-78
2022/03/12 07:46:39;;;;;;;21.42;13.20;;;;;;;7.94;78.86;101590.34;4936367;29;20560;-77
2022/03/12 07:49:05;;;;;;;21.42;12.93;;;;;;;8.14;78.58;101610.13;4936755;29;20028;-78
2022/03/12 07:51:33;;;;;;;20.10;13.27;;;;;;;8.12;78.14;101593.91;4936714;29;20048;-81
2022/03/12 07:54:00;;;;;;;19.02;12.05;;;;;;;8.15;78.04;101590.38;4936158;29;20102;-79
2022/03/12 07:56:27;;;;;;;21.45;14.05;;;;;;;8.30;78.25;101600.91;4936529;28;20027;-81
2022/03/12 07:58:55;;;;;;;21.70;12.25;;;;;;;8.55;77.74;101621.34;4936310;29;20020;-80
2022/03/12 08:01:20;;;;;;;18.42;12.00;;;;;;;8.66;77.33;101620.06;4936339;29;20145;-80
2022/03/12 08:03:45;;;;;;;18.58;12.05;;;;;;;8.77;76.95;101616.13;4936510;29;20051;-80
2022/03/12 08:06:13;;;;;;;16.70;11.77;;;;;;;8.87;76.63;101616.56;4938541;29;20035;-77
2022/03/12 08:08:38;;;;;;;17.00;11.63;;;;;;;8.69;76.65;101582.13;4936182;29;20054;-82
2022/03/12 08:13:48;;;;;;;17.27;11.60;;;;;;;8.98;76.41;101616.94;4936476;29;20043;-79
2022/03/12 08:16:13;;;;;;;15.93;11.00;;;;;;;8.81;76.49;101586.75;4936149;29;20429;-78
2022/03/12 08:18:39;;;;;;;17.20;9.88;;;;;;;9.17;76.49;101629.84;4935987;29;20075;-81
2022/03/12 08:21:05;;;;;;;17.83;10.35;;;;;;;9.15;76.07;101619.63;4936080;29;20370;-81
2022/03/12 08:23:31;;;;;;;16.90;10.27;;;;;;;9.19;75.92;101612.56;4935919;28;20056;-79
2022/03/12 08:25:57;;;;;;;16.45;10.25;;;;;;;9.33;75.84;101627.41;4935779;29;20051;-80
2022/03/12 08:28:23;;;;;;;16.83;10.45;;;;;;;9.39;75.64;101643.44;4935754;29;20058;-79
2022/03/12 08:30:49;;;;;;;17.02;10.57;;;;;;;9.44;75.87;101640.66;4935908;28;20319;-81
2022/03/12 08:33:14;;;;;;;18.92;10.80;;;;;;;9.52;76.09;101642.88;4935823;29;20548;-80
2022/03/12 08:35:40;;;;;;;16.83;10.15;;;;;;;9.50;75.61;101640.38;4935967;28;20474;-77
2022/03/12 08:38:07;;;;;;;16.50;10.35;;;;;;;9.54;75.87;101633.31;4935594;29;20043;-80
2022/03/12 08:40:33;;;;;;;16.02;10.05;;;;;;;9.73;74.93;101658.22;4935448;29;20028;-75
2022/03/12 08:42:58;;;;;;;15.02;9.40;;;;;;;9.65;74.87;101633.69;4935684;28;20433;-80
2022/03/12 08:45:24;;;;;;;15.68;9.60;;;;;;;9.92;74.71;101657.34;4966591;28;20044;-80
2022/03/12 08:47:49;;;;;;;16.50;10.48;;;;;;;10.01;74.71;101662.06;4935838;28;20060;-81
2022/03/12 08:50:15;;;;;;;15.90;9.80;;;;;;;10.07;73.94;101657.47;4935788;28;20400;-79
2022/03/12 08:52:42;;;;;;;14.13;9.13;;;;;;;10.14;73.76;101652.88;4935292;28;20055;-79
2022/03/12 08:55:09;;;;;;;14.65;9.25;;;;;;;10.10;73.63;101640.16;4935663;28;20099;-79
2022/03/12 08:57:35;;;;;;;16.20;9.73;;;;;;;10.09;73.48;101643.66;4935400;28;20045;-78
2022/03/12 09:00:00;;;;;;;15.43;9.57;;;;;;;10.28;73.46;101657.38;4935258;29;20465;-79
2022/03/12 09:02:28;;;;;;;15.68;9.57;;;;;;;10.34;73.15;101665.69;4935491;29;20115;-80
2022/03/12 09:04:53;;;;;;;13.25;9.18;;;;;;;10.20;73.47;101636.22;4935265;29;20027;-80
2022/03/12 09:07:19;;;;;;;14.38;9.15;;;;;;;10.24;71.98;101628.31;4935647;29;20027;-80
2022/03/12 09:09:45;;;;;;;14.73;9.00;;;;;;;10.42;72.37;101652.41;4935336;29;20362;-80
2022/03/12 09:12:13;;;;;;;14.48;9.23;;;;;;;10.45;72.49;101630.75;4935285;29;20036;-80
2022/03/12 09:14:38;;;;;;;14.93;8.65;;;;;;;10.48;71.28;101628.00;4935390;29;20492;-77
2022/03/12 09:17:05;;;;;;;13.85;8.70;;;;;;;10.88;70.73;101676.75;4935376;29;20027;-78
2022/03/12 09:19:32;;;;;;;15.23;8.07;;;;;;;10.73;70.42;101615.53;4935389;28;20039;-81
2022/03/12 09:21:57;;;;;;;13.82;9.85;;;;;;;11.07;69.38;101648.22;4935417;28;20103;-79
2022/03/12 09:24:23;;;;;;;15.95;8.07;;;;;;;11.20;69.42;101657.00;4935413;29;20126;-77
2022/03/12 09:26:49;;;;;;;14.45;8.15;;;;;;;11.53;69.17;101671.66;4935297;29;20042;-73
2022/03/12 09:29:14;;;;;;;12.07;7.22;;;;;;;11.59;68.15;101676.50;4935243;28;20063;-78
2022/03/12 09:31:39;;;;;;;16.50;6.80;;;;;;;11.66;67.91;101674.41;4935117;29;20077;-79
2022/03/12 09:34:06;;;;;;;14.65;6.43;;;;;;;11.40;67.06;101630.06;4935197;29;20031;-81
2022/03/12 09:36:32;;;;;;;12.45;5.78;;;;;;;11.67;66.53;101669.16;4935302;28;20038;-82
2022/03/12 09:38:58;;;;;;;15.23;5.93;;;;;;;11.62;66.04;101670.34;4934062;29;20023;-81
2022/03/12 09:41:23;;;;;;;12.27;5.90;;;;;;;11.46;65.81;101631.50;4938022;29;20024;-82
2022/03/12 09:43:49;;;;;;;12.88;6.00;;;;;;;11.73;66.32;101668.00;4938929;29;20032;-78
2022/03/12 09:46:14;;;;;;;14.43;6.45;;;;;;;11.76;65.90;101639.38;4938548;29;20473;-86
2022/03/12 09:48:40;;;;;;;18.38;8.90;;;;;;;12.16;64.58;101668.25;4938892;29;20028;-83
2022/03/12 09:51:05;;;;;;;24.65;11.43;;;;;;;12.16;63.42;101663.06;4939163;29;20549;-82
2022/03/12 09:53:31;;;;;;;22.52;11.00;;;;;;;12.08;63.76;101640.19;4938668;29;20047;-80
2022/03/12 09:55:56;;;;;;;15.15;7.70;;;;;;;12.25;62.49;101658.19;4938566;29;20043;-79
2022/03/12 09:58:21;;;;;;;11.68;4.72;;;;;;;12.24;60.23;101655.69;4938990;28;20024;-79
2022/03/12 10:00:49;;;;;;;12.30;4.32;;;;;;;12.22;62.01;101671.34;4938353;29;20107;-82
2022/03/12 10:04:01;;;;;;;13.02;4.72;;;;;;;12.25;60.58;101672.91;4938463;29;20185;-84
2022/03/12 10:06:58;;;;;;;16.20;4.53;;;;;;;12.20;60.22;101688.72;4938458;29;20039;-81
2022/03/12 10:09:31;;;;;;;10.60;3.85;;;;;;;11.14;59.54;101520.31;4944418;28;20044;-80
2022/03/12 10:12:15;;;;;;;7.70;2.80;;;;;;;11.78;59.25;101625.41;4938092;29;20477;-79
2022/03/12 10:14:50;;;;;;;16.33;4.13;;;;;;;11.26;59.77;101525.75;4938140;29;20028;-80
2022/03/12 10:17:26;;;;;;;9.13;3.35;;;;;;;11.48;59.26;101531.38;4938325;29;20024;-79
2022/03/12 10:19:54;;;;;;;10.48;3.70;;;;;;;12.11;58.86;101631.44;4938008;28;20043;-81
2022/03/12 10:22:26;;;;;;;9.50;3.55;;;;;;;11.96;58.87;101612.41;4938137;29;20020;-80
2022/03/12 10:25:34;;;;;;;10.63;4.03;;;;;;;12.57;59.65;101687.44;4950757;23;20063;-79
2022/03/12 10:28:05;;;;;;;10.52;3.80;;;;;;;12.20;58.73;101623.97;4918921;29;20033;-81
2022/03/12 10:30:34;;;;;;;9.68;3.97;;;;;;;11.94;58.68;101585.78;4918843;29;20032;-80
2022/03/12 10:36:20;;;;;;;9.32;3.92;;;;;;;11.83;58.27;101588.16;4919239;29;20050;-80
2022/03/12 10:39:13;;;;;;;8.55;3.58;;;;;;;11.49;57.97;101533.88;4918474;29;20036;-80
2022/03/12 10:42:37;;;;;;;11.88;3.78;;;;;;;12.08;58.29;101640.19;4918415;29;20055;-81
2022/03/12 10:51:46;;;;;;;10.02;3.83;;;;;;;12.68;58.49;101702.38;4916496;29;20089;-80
2022/03/12 10:57:39;;;;;;;12.07;4.38;;;;;;;12.82;57.47;101692.03;4915902;29;20124;-84
2022/03/12 11:00:11;;;;;;;9.88;3.33;;;;;;;12.35;57.37;101617.91;4916181;29;20096;-82
2022/03/12 11:02:37;;;;;;;10.90;3.67;;;;;;;12.79;57.53;101687.06;4916289;29;20119;-83
2022/03/12 11:05:06;;;;;;;9.80;3.42;;;;;;;12.48;57.17;101643.91;4916262;29;20123;-81
2022/03/12 11:07:31;;;;;;;10.05;3.53;;;;;;;12.63;57.63;101662.94;4916235;29;20063;-78
2022/03/12 11:09:57;;;;;;;9.68;3.47;;;;;;;12.88;57.12;101689.09;4915872;29;20074;-79
2022/03/12 11:12:33;;;;;;;12.30;4.22;;;;;;;12.89;56.63;101690.78;4916097;29;20055;-77
2022/03/12 11:15:14;;;;;;;7.93;3.25;;;;;;;12.96;56.37;101698.16;4916437;29;20486;-79
2022/03/12 11:17:47;;;;;;;10.68;3.72;;;;;;;13.02;56.20;101684.84;4918314;29;20035;-81
2022/03/12 11:20:18;;;;;;;10.23;3.85;;;;;;;13.02;55.71;101697.81;4918156;29;20461;-82
2022/03/12 11:22:49;;;;;;;8.32;3.22;;;;;;;12.95;55.89;101705.13;4918225;29;20028;-82
2022/03/12 11:25:19;;;;;;;;;;;;;;;12.97;56.48;101698.06;4918098;29;20070;-77
2022/03/12 11:27:49;;;;;;;8.05;3.22;;;;;;;12.92;55.34;101703.53;4918226;29;19971;-77
2022/03/12 11:30:20;;;;;;;9.02;3.15;;;;;;;12.95;55.99;101691.31;4917747;29;20024;-80
2022/03/12 11:32:47;;;;;;;10.30;3.88;;;;;;;12.83;56.08;101670.38;4918013;29;20079;-82
2022/03/12 11:35:22;;;;;;;9.85;2.97;;;;;;;13.05;56.30;101688.09;4917864;29;20051;-82
2022/03/12 11:37:48;;;;;;;9.30;3.40;;;;;;;13.15;55.30;101686.59;4917666;29;20032;-83
2022/03/12 11:40:18;;;;;;;9.30;3.42;;;;;;;13.12;54.99;101660.88;4917433;29;20047;-82